Time;durP1;ratioP1;P1;durP2;ratioP2;P2;SDS_P1;SDS_P2;PMS_P1;PMS_P2;Temp;Humidity;BMP_temperature;BMP_pressure;BME280_temperature;BME280_humidity;BME280_pressure;Samples;Min_cycle;Max_cycle;Signal;HPM_P1;HPM_P2
2021/10/14 00:00:58;;;;;;;58.80;3.30;;;5.80;45.90;;;;;;5071534;28;20320;-71
2021/10/14 00:03:25;;;;;;;59.45;3.65;;;5.80;46.30;;;;;;5071865;28;20312;-72
2021/10/14 00:05:51;;;;;;;58.83;3.60;;;5.80;47.20;;;;;;5081289;28;20735;-72
2021/10/14 00:08:18;;;;;;;58.33;2.80;;;5.80;47.80;;;;;;5091694;28;20312;-72
2021/10/14 00:10:45;;;;;;;58.60;2.90;;;5.80;48.40;;;;;;5091406;28;20288;-71
2021/10/14 00:13:13;;;;;;;58.67;2.70;;;5.80;49.30;;;;;;5091303;28;20205;-73
2021/10/14 00:15:41;;;;;;;58.45;2.70;;;5.80;50.00;;;;;;5090995;28;20290;-72
2021/10/14 00:18:08;;;;;;;58.55;2.95;;;5.80;50.30;;;;;;5091535;28;20295;-72
2021/10/14 00:20:35;;;;;;;58.55;2.80;;;5.80;50.70;;;;;;5094796;28;20227;-72
2021/10/14 00:23:02;;;;;;;58.78;3.15;;;5.80;51.20;;;;;;5095305;28;20208;-71
2021/10/14 00:25:29;;;;;;;58.28;2.67;;;5.80;52.00;;;;;;5095021;28;20306;-71
2021/10/14 00:27:56;;;;;;;59.30;3.30;;;5.80;52.10;;;;;;5094847;28;20295;-70
2021/10/14 00:30:24;;;;;;;58.53;2.90;;;5.70;52.00;;;;;;5095298;28;20206;-71
2021/10/14 00:32:51;;;;;;;58.58;2.97;;;5.70;52.20;;;;;;5095210;28;20215;-71
2021/10/14 00:35:18;;;;;;;58.60;2.75;;;5.60;51.70;;;;;;5094675;28;20231;-71
2021/10/14 00:37:45;;;;;;;58.58;2.83;;;5.60;50.80;;;;;;5091074;28;20206;-71
2021/10/14 00:40:13;;;;;;;58.60;2.80;;;5.50;49.90;;;;;;5074566;28;20232;-71
2021/10/14 00:42:43;;;;;;;59.10;3.30;;;5.40;48.60;;;;;;5074703;28;20636;-71
2021/10/14 00:45:11;;;;;;;58.55;3.00;;;5.40;48.50;;;;;;5074670;28;20215;-70
2021/10/14 00:47:39;;;;;;;58.47;2.90;;;5.30;48.10;;;;;;5074349;28;20292;-71
2021/10/14 00:50:08;;;;;;;58.47;3.00;;;5.30;48.00;;;;;;5074259;28;20612;-71
2021/10/14 00:52:38;;;;;;;58.45;2.90;;;5.30;48.80;;;;;;5074568;28;20248;-71
2021/10/14 00:55:05;;;;;;;58.40;3.00;;;5.30;49.60;;;;;;5074762;28;20651;-71
2021/10/14 00:57:33;;;;;;;58.75;3.00;;;5.30;50.10;;;;;;5074410;28;20216;-71
2021/10/14 01:00:00;;;;;;;58.53;2.85;;;5.30;50.50;;;;;;5074122;28;20276;-72
2021/10/14 01:02:27;;;;;;;58.38;2.70;;;5.30;51.20;;;;;;5074805;28;20240;-71
2021/10/14 01:04:55;;;;;;;58.65;3.00;;;5.30;52.30;;;;;;5074680;28;20296;-71
2021/10/14 01:07:22;;;;;;;58.58;2.90;;;5.30;53.20;;;;;;5074030;28;20631;-71
2021/10/14 01:09:49;;;;;;;58.70;2.80;;;5.40;54.60;;;;;;5074180;28;20307;-71
2021/10/14 01:12:19;;;;;;;58.47;2.80;;;5.40;55.10;;;;;;5089242;28;20669;-71
2021/10/14 01:14:45;;;;;;;58.45;2.88;;;5.50;56.30;;;;;;5093965;28;20300;-71
2021/10/14 01:17:12;;;;;;;58.42;2.78;;;5.50;57.50;;;;;;5094226;28;20204;-72
2021/10/14 01:19:42;;;;;;;58.42;2.75;;;5.60;58.50;;;;;;5094035;28;20231;-72
2021/10/14 01:22:09;;;;;;;58.90;3.00;;;5.60;59.50;;;;;;5093811;28;20296;-71
2021/10/14 01:24:36;;;;;;;58.55;2.80;;;5.60;60.00;;;;;;5094475;28;20219;-71
2021/10/14 01:27:04;;;;;;;58.03;2.67;;;5.60;60.00;;;;;;5094099;28;20299;-71
2021/10/14 01:29:31;;;;;;;58.38;2.97;;;5.60;60.10;;;;;;5094272;28;20704;-71
2021/10/14 01:32:00;;;;;;;58.53;2.90;;;5.50;60.20;;;;;;5093404;28;20205;-72
2021/10/14 01:34:26;;;;;;;58.60;2.70;;;5.50;60.20;;;;;;5093663;28;20688;-74
2021/10/14 01:36:55;;;;;;;58.38;2.83;;;5.50;60.20;;;;;;5093914;28;20210;-72
2021/10/14 01:39:22;;;;;;;58.60;2.90;;;5.40;60.30;;;;;;5093805;28;20235;-72
2021/10/14 01:42:03;;;;;;;58.40;2.60;;;5.40;60.10;;;;;;5093872;28;20381;-71
2021/10/14 01:44:30;;;;;;;58.50;2.85;;;5.40;59.50;;;;;;5028662;28;20233;-71
2021/10/14 01:46:57;;;;;;;58.70;2.70;;;5.30;58.80;;;;;;5031020;28;20206;-73
2021/10/14 01:49:24;;;;;;;58.40;2.58;;;5.30;58.50;;;;;;5031315;28;20313;-71
2021/10/14 01:51:51;;;;;;;58.45;2.95;;;5.30;58.80;;;;;;5030985;28;20212;-71
2021/10/14 01:54:19;;;;;;;58.47;2.85;;;5.30;58.60;;;;;;5030876;28;20694;-71
2021/10/14 01:56:46;;;;;;;58.90;3.47;;;5.30;59.20;;;;;;5030556;28;20202;-72
2021/10/14 01:59:12;;;;;;;59.28;3.50;;;5.30;59.30;;;;;;5030913;28;20227;-71
2021/10/14 02:01:39;;;;;;;58.47;3.05;;;5.30;59.40;;;;;;5031179;28;20233;-72
2021/10/14 02:04:06;;;;;;;58.45;2.90;;;5.30;59.70;;;;;;5030966;28;20628;-71
2021/10/14 02:06:33;;;;;;;58.47;2.92;;;5.30;60.30;;;;;;5030529;28;20212;-71
2021/10/14 02:09:00;;;;;;;58.67;3.30;;;5.30;60.00;;;;;;5030936;28;20341;-71
2021/10/14 02:11:28;;;;;;;58.38;2.92;;;5.20;60.00;;;;;;5030598;28;20203;-72
2021/10/14 02:13:55;;;;;;;58.58;2.97;;;5.20;60.10;;;;;;5030593;28;20762;-71
2021/10/14 02:16:22;;;;;;;58.65;2.90;;;5.20;60.20;;;;;;5028522;28;20301;-71
2021/10/14 02:18:48;;;;;;;58.45;2.75;;;5.20;60.80;;;;;;5030410;28;20325;-71
2021/10/14 02:21:17;;;;;;;58.67;3.08;;;5.20;60.60;;;;;;5047432;28;20247;-71
2021/10/14 02:23:45;;;;;;;58.47;3.00;;;5.20;61.00;;;;;;5092843;28;20242;-71
2021/10/14 02:26:12;;;;;;;58.65;2.90;;;5.20;61.10;;;;;;5092637;28;20294;-71
2021/10/14 02:28:40;;;;;;;58.50;2.88;;;5.20;61.60;;;;;;5093057;28;20316;-71
2021/10/14 02:31:07;;;;;;;58.28;2.92;;;5.30;62.00;;;;;;5092902;28;20287;-72
2021/10/14 02:33:33;;;;;;;58.58;2.72;;;5.30;62.30;;;;;;5092988;28;20204;-71
2021/10/14 02:36:00;;;;;;;58.63;3.15;;;5.30;62.80;;;;;;5092403;28;20759;-72
2021/10/14 02:38:27;;;;;;;58.38;2.60;;;5.30;62.70;;;;;;5092316;28;20738;-71
2021/10/14 02:40:54;;;;;;;58.78;3.10;;;5.20;62.90;;;;;;5092628;28;20220;-71
2021/10/14 02:43:21;;;;;;;58.47;3.10;;;5.20;62.40;;;;;;5091587;28;20214;-72
2021/10/14 02:45:49;;;;;;;58.28;2.70;;;5.10;62.50;;;;;;5092144;28;20243;-71
2021/10/14 02:48:16;;;;;;;58.40;2.78;;;5.10;62.40;;;;;;5092483;28;20312;-70
2021/10/14 02:50:43;;;;;;;58.47;2.78;;;5.10;62.40;;;;;;5090856;28;20284;-72
2021/10/14 02:53:10;;;;;;;58.47;2.90;;;5.10;62.50;;;;;;5092139;28;20244;-71
2021/10/14 02:55:36;;;;;;;58.17;2.70;;;5.10;62.60;;;;;;5092331;28;20290;-71
2021/10/14 02:58:03;;;;;;;58.38;2.90;;;5.10;62.70;;;;;;5092247;28;20322;-72
2021/10/14 03:00:30;;;;;;;58.53;2.97;;;5.10;62.70;;;;;;5092305;28;20307;-71
2021/10/14 03:02:58;;;;;;;59.08;3.00;;;5.00;62.60;;;;;;5092566;28;20564;-71
2021/10/14 03:05:25;;;;;;;58.70;2.70;;;5.00;62.70;;;;;;5091744;28;20215;-73
2021/10/14 03:07:52;;;;;;;58.47;2.67;;;5.00;62.70;;;;;;5092698;28;20327;-70
2021/10/14 03:10:19;;;;;;;58.58;2.70;;;5.00;62.80;;;;;;5092156;28;20220;-70
2021/10/14 03:12:46;;;;;;;58.75;2.80;;;4.90;62.70;;;;;;5091856;28;20294;-71
2021/10/14 03:15:13;;;;;;;58.42;3.00;;;5.00;63.20;;;;;;5091972;28;20295;-71
2021/10/14 03:17:39;;;;;;;58.58;2.88;;;5.00;63.30;;;;;;5091604;28;20214;-73
2021/10/14 03:20:10;;;;;;;58.47;2.85;;;5.00;63.50;;;;;;5091574;28;20326;-70
2021/10/14 03:22:36;;;;;;;58.58;2.70;;;5.00;63.90;;;;;;5090173;28;20628;-71
2021/10/14 03:25:04;;;;;;;58.58;3.20;;;5.00;64.10;;;;;;5091879;28;20248;-71
2021/10/14 03:27:31;;;;;;;58.50;3.00;;;5.00;64.10;;;;;;5091752;28;20287;-71
2021/10/14 03:29:57;;;;;;;58.67;2.78;;;5.00;64.20;;;;;;5091905;28;20312;-71
2021/10/14 03:32:24;;;;;;;58.47;2.75;;;5.00;64.70;;;;;;5091637;28;20200;-71
2021/10/14 03:34:51;;;;;;;58.45;2.80;;;5.00;65.00;;;;;;5091440;28;20306;-70
2021/10/14 03:37:19;;;;;;;58.58;2.90;;;5.00;65.10;;;;;;5091367;28;20295;-72
2021/10/14 03:39:46;;;;;;;58.80;2.92;;;5.00;65.10;;;;;;5091798;28;20255;-73
2021/10/14 03:42:13;;;;;;;58.42;2.65;;;5.00;65.10;;;;;;5091539;28;20315;-71
2021/10/14 03:44:40;;;;;;;58.45;2.90;;;4.90;65.00;;;;;;5091368;28;20302;-72
2021/10/14 03:47:07;;;;;;;58.28;2.40;;;4.80;64.60;;;;;;5091351;28;20208;-71
2021/10/14 03:49:34;;;;;;;58.67;2.72;;;4.80;64.60;;;;;;5091805;28;20315;-72
2021/10/14 03:52:01;;;;;;;58.58;3.00;;;4.80;64.60;;;;;;5092185;28;20200;-71
2021/10/14 03:54:29;;;;;;;58.63;2.85;;;4.80;64.70;;;;;;5091327;28;20378;-72
2021/10/14 03:56:56;;;;;;;58.17;2.60;;;4.70;64.70;;;;;;5095445;28;20299;-71
2021/10/14 03:59:23;;;;;;;58.47;2.50;;;4.70;64.40;;;;;;5095649;28;20643;-71
2021/10/14 04:01:50;;;;;;;58.55;2.65;;;4.70;64.20;;;;;;5095569;28;20310;-71
2021/10/14 04:04:16;;;;;;;57.92;2.80;;;4.60;64.30;;;;;;5096006;28;20218;-71
2021/10/14 04:06:43;;;;;;;59.40;3.30;;;4.50;63.50;;;;;;5095331;28;20230;-71
2021/10/14 04:09:10;;;;;;;58.47;2.80;;;4.50;63.50;;;;;;5095727;28;20727;-71
2021/10/14 04:11:38;;;;;;;58.28;2.80;;;4.50;63.30;;;;;;5095329;28;20287;-72
2021/10/14 04:14:05;;;;;;;58.38;2.60;;;4.50;63.40;;;;;;5095200;28;20293;-73
2021/10/14 04:16:32;;;;;;;58.65;2.95;;;4.50;63.50;;;;;;5095114;28;20578;-71
2021/10/14 04:18:59;;;;;;;58.47;2.85;;;4.50;63.50;;;;;;5095489;28;20783;-72
2021/10/14 04:21:26;;;;;;;58.30;2.70;;;4.50;63.90;;;;;;5095617;28;20228;-72
2021/10/14 04:23:53;;;;;;;58.35;2.90;;;4.50;64.10;;;;;;5095484;28;20208;-72
2021/10/14 04:26:21;;;;;;;58.35;2.70;;;4.60;64.70;;;;;;5095424;28;20201;-72
2021/10/14 04:28:49;;;;;;;58.28;2.80;;;4.70;65.00;;;;;;5093171;28;20224;-72
2021/10/14 04:31:16;;;;;;;57.95;2.95;;;4.70;65.20;;;;;;5095278;28;20210;-72
2021/10/14 04:33:43;;;;;;;58.50;2.60;;;4.80;66.00;;;;;;5095279;28;20200;-72
2021/10/14 04:36:10;;;;;;;58.50;2.70;;;4.80;65.50;;;;;;5094800;28;20584;-73
2021/10/14 04:38:37;;;;;;;59.00;3.30;;;4.70;65.50;;;;;;5095152;28;20282;-72
2021/10/14 04:41:04;;;;;;;58.30;2.60;;;4.70;65.50;;;;;;5094953;28;20398;-72
2021/10/14 04:43:30;;;;;;;58.67;3.00;;;4.70;65.50;;;;;;5094796;28;20204;-71
2021/10/14 04:45:58;;;;;;;58.10;2.90;;;4.70;65.50;;;;;;5094736;28;20243;-71
2021/10/14 04:48:25;;;;;;;58.58;2.70;;;4.70;65.80;;;;;;5094707;28;20311;-72
2021/10/14 04:50:52;;;;;;;58.40;2.80;;;4.70;65.70;;;;;;5095019;28;20226;-72
2021/10/14 04:53:19;;;;;;;58.72;2.72;;;4.70;65.90;;;;;;5094896;28;20215;-72
2021/10/14 04:55:46;;;;;;;58.15;3.00;;;4.70;65.60;;;;;;5094498;28;20304;-69
2021/10/14 04:58:13;;;;;;;58.05;2.80;;;4.60;65.70;;;;;;5094735;28;20296;-71
2021/10/14 05:00:39;;;;;;;58.17;2.70;;;4.60;66.10;;;;;;5092385;28;20649;-71
2021/10/14 05:03:08;;;;;;;58.38;2.75;;;4.60;65.50;;;;;;5095146;28;20206;-72
2021/10/14 05:05:34;;;;;;;58.58;2.85;;;4.60;65.70;;;;;;5093192;28;20296;-71
2021/10/14 05:08:01;;;;;;;58.50;2.70;;;4.60;65.80;;;;;;5093585;28;20260;-71
2021/10/14 05:10:28;;;;;;;57.90;2.80;;;4.70;66.50;;;;;;5093990;28;20292;-71
2021/10/14 05:12:55;;;;;;;58.20;2.70;;;4.70;66.40;;;;;;5094691;28;20683;-70
2021/10/14 05:15:22;;;;;;;58.58;2.65;;;4.70;66.60;;;;;;5094195;28;20206;-70
2021/10/14 05:17:49;;;;;;;58.47;2.55;;;4.70;66.70;;;;;;5094428;28;20477;-70
2021/10/14 05:20:17;;;;;;;58.25;2.70;;;4.70;67.00;;;;;;5094442;28;20228;-71
2021/10/14 05:22:44;;;;;;;58.47;2.97;;;4.80;67.40;;;;;;5094141;28;20319;-70
2021/10/14 05:25:11;;;;;;;57.78;3.28;;;4.80;67.50;;;;;;5093979;28;20333;-70
2021/10/14 05:27:37;;;;;;;58.47;2.70;;;4.90;67.90;;;;;;5093867;28;20298;-71
2021/10/14 05:30:06;;;;;;;58.80;3.80;;;4.90;68.10;;;;;;5093751;28;20316;-71
2021/10/14 05:32:32;;;;;;;58.47;2.50;;;4.90;68.10;;;;;;5092413;28;20235;-71
2021/10/14 05:35:00;;;;;;;58.38;2.80;;;4.90;68.20;;;;;;5093946;28;20209;-73
2021/10/14 05:37:28;;;;;;;58.35;2.60;;;4.90;68.40;;;;;;5093506;28;20211;-70
2021/10/14 05:39:55;;;;;;;58.50;2.90;;;4.90;68.90;;;;;;5093845;28;20234;-71
2021/10/14 05:42:23;;;;;;;58.47;2.90;;;5.00;69.20;;;;;;5093981;28;20763;-71
2021/10/14 05:44:50;;;;;;;58.35;2.80;;;5.00;69.40;;;;;;5093874;28;20236;-72
2021/10/14 05:47:16;;;;;;;58.40;2.78;;;5.10;70.00;;;;;;5093729;28;20635;-72
2021/10/14 05:49:43;;;;;;;58.58;2.80;;;5.10;70.40;;;;;;5093848;28;20228;-71
2021/10/14 05:52:10;;;;;;;58.28;2.58;;;5.10;70.50;;;;;;5093549;28;20687;-72
2021/10/14 05:54:38;;;;;;;58.17;2.90;;;5.10;70.60;;;;;;5093541;28;20208;-72
2021/10/14 05:57:05;;;;;;;58.38;2.65;;;5.10;70.80;;;;;;5093529;28;20593;-72
2021/10/14 05:59:32;;;;;;;58.17;2.80;;;5.10;70.90;;;;;;5093563;28;20738;-73
2021/10/14 06:01:59;;;;;;;58.38;2.90;;;5.20;71.20;;;;;;5093249;28;20231;-72
2021/10/14 06:04:26;;;;;;;58.38;2.70;;;5.20;71.40;;;;;;5092146;28;20687;-72
2021/10/14 06:06:53;;;;;;;58.17;2.60;;;5.20;71.50;;;;;;5093191;28;20296;-72
2021/10/14 06:09:19;;;;;;;58.17;2.72;;;5.20;71.50;;;;;;5093322;28;20252;-72
2021/10/14 06:11:48;;;;;;;58.65;3.38;;;5.20;71.70;;;;;;5093558;28;20289;-73
2021/10/14 06:14:16;;;;;;;58.25;2.60;;;5.30;72.00;;;;;;5093550;28;20200;-73
2021/10/14 06:16:42;;;;;;;58.25;2.58;;;5.30;72.50;;;;;;5092836;28;20205;-72
2021/10/14 06:19:09;;;;;;;59.92;3.28;;;5.40;72.90;;;;;;5093284;28;20315;-73
2021/10/14 06:21:36;;;;;;;58.97;3.10;;;5.40;73.20;;;;;;5092783;28;20329;-72
2021/10/14 06:24:03;;;;;;;58.30;2.70;;;5.50;73.80;;;;;;5093320;28;20247;-73
2021/10/14 06:26:30;;;;;;;58.38;2.70;;;5.60;74.10;;;;;;5093249;28;20215;-72
2021/10/14 06:28:58;;;;;;;58.42;2.72;;;5.70;74.90;;;;;;5092986;28;20723;-73
2021/10/14 06:31:25;;;;;;;58.40;3.10;;;5.80;75.60;;;;;;5093077;28;20233;-73
2021/10/14 06:33:52;;;;;;;58.17;2.70;;;5.90;75.90;;;;;;5092901;28;20292;-72
2021/10/14 06:36:19;;;;;;;58.13;2.67;;;5.90;76.60;;;;;;5090768;28;20202;-72
2021/10/14 06:38:46;;;;;;;57.97;2.53;;;6.00;76.90;;;;;;5092688;28;21066;-73
2021/10/14 06:41:13;;;;;;;58.28;2.85;;;6.10;77.40;;;;;;5092562;28;20297;-71
2021/10/14 06:43:40;;;;;;;58.47;2.70;;;6.20;78.10;;;;;;5092876;28;20693;-72
2021/10/14 06:46:09;;;;;;;58.60;2.90;;;6.20;78.50;;;;;;5092396;28;20291;-73
2021/10/14 06:48:36;;;;;;;58.40;2.67;;;6.20;78.60;;;;;;5092526;28;20232;-73
2021/10/14 06:51:03;;;;;;;58.90;3.30;;;6.20;78.60;;;;;;5092773;28;20207;-74
2021/10/14 06:53:31;;;;;;;58.38;2.75;;;6.20;79.10;;;;;;5092870;28;20441;-73
2021/10/14 06:55:58;;;;;;;58.53;3.10;;;6.20;78.70;;;;;;5092186;28;20335;-73
2021/10/14 06:58:25;;;;;;;58.40;2.80;;;6.30;79.00;;;;;;5092411;28;20313;-74
2021/10/14 07:00:52;;;;;;;58.45;2.75;;;6.30;79.40;;;;;;5092266;28;20451;-74
2021/10/14 07:03:20;;;;;;;58.23;2.70;;;6.50;79.60;;;;;;5092549;28;20257;-73
2021/10/14 07:05:47;;;;;;;57.97;2.80;;;6.60;80.40;;;;;;5092143;28;20476;-73
2021/10/14 07:08:17;;;;;;;58.37;2.70;;;6.70;81.00;;;;;;5092582;28;21139;-74
2021/10/14 07:10:45;;;;;;;58.07;2.67;;;6.80;81.80;;;;;;5092321;28;20478;-72
2021/10/14 07:13:13;;;;;;;58.50;2.80;;;6.90;82.60;;;;;;5092345;28;20450;-72
2021/10/14 07:15:40;;;;;;;58.30;2.63;;;7.00;82.60;;;;;;5091820;28;20484;-71
2021/10/14 07:18:08;;;;;;;58.07;2.70;;;7.00;82.90;;;;;;5092455;28;20448;-73
2021/10/14 07:20:37;;;;;;;58.37;2.77;;;7.10;83.20;;;;;;5092187;28;20531;-72
2021/10/14 07:23:10;;;;;;;58.40;3.17;;;7.20;83.70;;;;;;5091926;28;20568;-72
2021/10/14 07:25:37;;;;;;;58.30;2.70;;;7.30;84.10;;;;;;5091745;28;21019;-72
2021/10/14 07:28:05;;;;;;;59.17;2.93;;;7.40;84.50;;;;;;5092221;28;20547;-74
2021/10/14 07:30:32;;;;;;;59.20;3.67;;;7.50;85.00;;;;;;5091940;28;20566;-70
2021/10/14 07:33:03;;;;;;;58.27;2.70;;;7.60;85.40;;;;;;5092243;28;20445;-72
2021/10/14 07:35:31;;;;;;;58.17;2.77;;;7.80;86.10;;;;;;5091507;28;20946;-71
2021/10/14 07:38:00;;;;;;;58.40;2.60;;;7.90;86.60;;;;;;5091724;28;20956;-71
2021/10/14 07:40:27;;;;;;;58.30;2.70;;;7.90;86.70;;;;;;5091975;28;20466;-72
2021/10/14 07:42:54;;;;;;;58.33;2.70;;;7.90;85.80;;;;;;5091639;28;20524;-71
2021/10/14 07:45:21;;;;;;;58.20;2.47;;;7.80;84.30;;;;;;5091822;28;20488;-72
2021/10/14 07:47:48;;;;;;;58.27;2.57;;;7.80;81.00;;;;;;5091854;28;20485;-71
2021/10/14 07:50:15;;;;;;;58.17;3.07;;;7.90;77.70;;;;;;5091554;28;20482;-71
2021/10/14 07:52:42;;;;;;;58.30;2.63;;;7.90;73.80;;;;;;5091963;28;20947;-72
2021/10/14 07:55:11;;;;;;;57.97;2.70;;;8.10;71.50;;;;;;5091440;28;20445;-71
2021/10/14 07:57:38;;;;;;;58.83;2.83;;;8.20;67.20;;;;;;5091605;28;20539;-73
2021/10/14 08:00:07;;;;;;;58.33;2.70;;;8.10;65.80;;;;;;5091940;28;20473;-72
2021/10/14 08:02:34;;;;;;;58.30;2.50;;;8.10;59.70;;;;;;5091391;28;20486;-73
2021/10/14 08:05:01;;;;;;;58.07;2.70;;;8.10;49.30;;;;;;5091719;28;20456;-73
2021/10/14 08:07:28;;;;;;;58.27;2.70;;;8.20;45.60;;;;;;5091569;28;20548;-72
2021/10/14 08:09:55;;;;;;;58.23;2.70;;;8.30;51.30;;;;;;5091856;28;20468;-72
2021/10/14 08:12:24;;;;;;;58.40;2.80;;;8.40;58.10;;;;;;5092205;28;20537;-73
2021/10/14 08:14:51;;;;;;;58.27;2.77;;;8.70;64.40;;;;;;5092066;28;20449;-73
2021/10/14 08:17:18;;;;;;;58.30;2.80;;;9.00;64.00;;;;;;5092629;28;20480;-71
2021/10/14 08:19:44;;;;;;;58.47;3.10;;;9.20;56.10;;;;;;5093276;28;20508;-72
2021/10/14 08:22:11;;;;;;;58.17;2.80;;;9.30;37.10;;;;;;5092283;28;20477;-73
2021/10/14 08:24:40;;;;;;;58.20;2.80;;;9.30;1.00;;;;;;5091896;28;20549;-72
2021/10/14 08:27:07;;;;;;;58.40;3.03;;;9.40;1.00;;;;;;5091452;28;20449;-72
2021/10/14 08:29:35;;;;;;;57.97;2.80;;;9.40;1.00;;;;;;5091699;28;20476;-73
2021/10/14 08:32:03;;;;;;;58.23;2.80;;;9.40;1.00;;;;;;5101612;28;20491;-71
2021/10/14 08:34:30;;;;;;;58.13;2.60;;;9.40;1.00;;;;;;5110558;28;20446;-73
2021/10/14 08:36:57;;;;;;;58.40;3.00;;;9.50;1.00;;;;;;5109803;28;20442;-72
2021/10/14 08:39:24;;;;;;;59.00;2.90;;;9.60;1.00;;;;;;5102994;28;20472;-73
2021/10/14 08:41:51;;;;;;;58.07;2.60;;;9.60;1.00;;;;;;5106523;28;20884;-73
2021/10/14 08:44:25;;;;;;;58.00;2.70;;;9.80;1.00;;;;;;5107081;28;20443;-72
2021/10/14 08:46:54;;;;;;;58.23;2.80;;;9.90;1.00;;;;;;5113662;28;20522;-73
2021/10/14 08:49:21;;;;;;;58.37;2.60;;;10.10;1.00;;;;;;5112907;28;20522;-72
2021/10/14 08:51:48;;;;;;;58.20;2.70;;;10.20;1.00;;;;;;5107844;28;20458;-72
2021/10/14 08:54:15;;;;;;;58.10;2.87;;;10.30;1.00;;;;;;5095204;28;20541;-74
2021/10/14 08:56:44;;;;;;;58.17;2.70;;;10.40;1.00;;;;;;5094571;28;20457;-73
2021/10/14 08:59:12;;;;;;;57.93;2.70;;;10.60;1.00;;;;;;5094872;28;20546;-73
2021/10/14 09:01:40;;;;;;;58.17;2.80;;;10.90;1.00;;;;;;5094725;28;20484;-71
2021/10/14 09:04:18;;;;;;;58.07;2.80;;;11.10;1.00;;;;;;5094670;28;20494;-73
2021/10/14 09:06:45;;;;;;;58.10;2.70;;;11.30;1.00;;;;;;5094522;28;20930;-73
2021/10/14 09:09:12;;;;;;;58.17;2.87;;;11.50;1.00;;;;;;5094969;28;20551;-72
2021/10/14 09:11:39;;;;;;;58.75;2.50;;;11.60;1.00;;;;;;5094507;28;20418;-72
2021/10/14 09:14:08;;;;;;;58.20;2.50;;;11.80;1.00;;;;;;5094200;28;20709;-72
2021/10/14 09:16:37;;;;;;;58.23;3.50;;;12.00;1.00;;;;;;5093477;28;20454;-73
2021/10/14 09:19:19;;;;;;;58.13;2.57;;;12.30;1.00;;;;;;5094336;28;20545;-72
2021/10/14 09:21:49;;;;;;;58.40;3.07;;;12.50;1.00;;;;;;5094341;28;20448;-72
2021/10/14 09:24:28;;;;;;;59.10;3.07;;;12.70;1.00;;;;;;5093927;28;20482;-72
2021/10/14 09:26:56;;;;;;;58.67;3.00;;;12.90;1.00;;;;;;5093779;28;21000;-71
2021/10/14 09:29:27;;;;;;;57.97;2.53;;;13.00;1.00;;;;;;5094244;28;21003;-72
2021/10/14 09:31:57;;;;;;;57.87;2.60;;;13.10;1.00;;;;;;5093985;28;20539;-72
2021/10/14 09:34:39;;;;;;;58.27;2.97;;;13.20;1.00;;;;;;5094033;28;20534;-71
2021/10/14 09:37:26;;;;;;;57.87;2.40;;;13.30;1.00;;;;;;5093751;28;20833;-71
2021/10/14 09:39:58;;;;;;;59.13;3.30;;;13.50;1.00;;;;;;5094042;28;20467;-71
2021/10/14 09:42:50;;;;;;;58.03;2.60;;;14.00;1.00;;;;;;5093781;28;20484;-71
2021/10/14 09:45:19;;;;;;;58.17;2.67;;;14.50;1.00;;;;;;5093861;28;20953;-72
2021/10/14 09:47:49;;;;;;;58.30;2.57;;;14.90;1.00;;;;;;5093517;28;20488;-70
2021/10/14 09:50:20;;;;;;;58.07;2.60;;;15.40;1.00;;;;;;5093802;28;20473;-73
2021/10/14 09:52:47;;;;;;;57.97;2.40;;;15.80;1.00;;;;;;5093487;28;20447;-73
2021/10/14 09:55:15;;;;;;;58.13;3.17;;;16.40;1.00;;;;;;5093765;28;20537;-71
2021/10/14 09:57:42;;;;;;;57.57;2.27;;;16.70;1.00;;;;;;5093304;28;20447;-71
2021/10/14 10:00:10;;;;;;;57.93;2.33;;;16.90;1.00;;;;;;5093387;28;20549;-71
2021/10/14 10:02:38;;;;;;;58.20;2.90;;;16.90;1.00;;;;;;5093674;28;20581;-72
2021/10/14 10:05:07;;;;;;;57.57;2.67;;;16.70;1.00;;;;;;5093271;28;20455;-72
2021/10/14 10:07:38;;;;;;;57.63;2.33;;;16.70;1.00;;;;;;5093330;28;20994;-72
2021/10/14 10:10:07;;;;;;;58.17;2.20;;;16.70;1.00;;;;;;5093712;28;20474;-72
2021/10/14 10:12:35;;;;;;;58.80;2.60;;;17.00;1.00;;;;;;5092977;28;20966;-71
2021/10/14 10:15:02;;;;;;;57.73;2.40;;;17.40;1.00;;;;;;5093406;28;20847;-70
2021/10/14 10:17:39;;;;;;;57.93;2.30;;;18.00;1.00;;;;;;5092943;28;20537;-70
2021/10/14 10:20:08;;;;;;;57.83;2.40;;;18.40;1.00;;;;;;5093168;28;20907;-71
2021/10/14 10:22:51;;;;;;;57.83;2.83;;;18.90;1.00;;;;;;5092917;28;20450;-67
2021/10/14 10:25:34;;;;;;;57.77;2.30;;;19.30;1.00;;;;;;5090981;28;20890;-68
2021/10/14 10:28:03;;;;;;;57.57;2.63;;;19.30;1.00;;;;;;5093169;28;20525;-69
2021/10/14 10:30:32;;;;;;;57.30;2.30;;;19.40;1.00;;;;;;5093015;28;20446;-70
2021/10/14 10:32:59;;;;;;;57.87;2.60;;;19.90;1.00;;;;;;5092871;28;20445;-69
2021/10/14 10:35:41;;;;;;;57.67;2.33;;;20.50;1.00;;;;;;5092402;28;20939;-69
2021/10/14 10:38:17;;;;;;;57.97;2.37;;;21.20;1.00;;;;;;5093027;28;20454;-70
2021/10/14 10:40:45;;;;;;;57.90;2.30;;;22.00;1.00;;;;;;5093054;28;20442;-69
2021/10/14 10:43:15;;;;;;;58.07;2.30;;;22.50;1.00;;;;;;5092483;28;20489;-69
2021/10/14 10:45:52;;;;;;;58.07;2.80;;;22.90;1.00;;;;;;5092280;28;20448;-70
2021/10/14 10:48:23;;;;;;;57.80;2.50;;;23.20;1.00;;;;;;5092908;28;20473;-69
2021/10/14 10:50:52;;;;;;;57.90;2.20;;;23.80;1.00;;;;;;5092798;28;20497;-70
2021/10/14 10:53:22;;;;;;;57.67;2.10;;;24.80;1.00;;;;;;5092829;28;20530;-70
2021/10/14 10:55:51;;;;;;;57.43;2.07;;;25.60;1.00;;;;;;5092059;28;20537;-69
2021/10/14 10:58:44;;;;;;;57.80;2.43;;;26.10;1.00;;;;;;5092301;28;20546;-69
2021/10/14 11:01:12;;;;;;;59.60;4.00;;;26.70;1.00;;;;;;5092415;28;20453;-71
2021/10/14 11:03:49;;;;;;;58.30;2.73;;;26.80;1.00;;;;;;5091426;28;20478;-69
2021/10/14 11:06:15;;;;;;;57.37;2.13;;;26.60;1.00;;;;;;5092173;28;20444;-69
2021/10/14 11:08:44;;;;;;;57.87;2.40;;;26.50;1.00;;;;;;5092176;28;20466;-70
2021/10/14 11:11:12;;;;;;;58.87;2.63;;;25.60;1.00;;;;;;5092206;28;21232;-71
2021/10/14 11:13:41;;;;;;;58.30;2.60;;;24.60;1.00;;;;;;5092722;28;20465;-71
2021/10/14 11:16:10;;;;;;;57.57;2.17;;;23.80;1.00;;;;;;5091893;28;20450;-71
2021/10/14 11:18:40;;;;;;;59.50;2.57;;;23.10;1.00;;;;;;5092025;28;20472;-71
2021/10/14 11:21:10;;;;;;;57.87;3.07;;;22.50;1.00;;;;;;5092318;28;20446;-71
2021/10/14 11:23:39;;;;;;;57.83;2.30;;;22.00;1.00;;;;;;5091913;28;20478;-71
2021/10/14 11:26:10;;;;;;;57.70;2.40;;;21.70;1.00;;;;;;5091960;28;20453;-72
2021/10/14 11:28:59;;;;;;;57.77;2.63;;;21.70;1.00;;;;;;5092121;28;20542;-71
2021/10/14 11:31:29;;;;;;;57.87;2.27;;;21.50;1.00;;;;;;5091915;28;20965;-71
2021/10/14 11:34:03;;;;;;;57.90;2.40;;;21.30;1.00;;;;;;5092158;28;20443;-72
2021/10/14 11:36:30;;;;;;;57.87;2.43;;;21.30;1.00;;;;;;5091603;28;21033;-71
2021/10/14 11:39:00;;;;;;;58.00;2.30;;;21.40;1.00;;;;;;5091497;28;20473;-71
2021/10/14 11:41:28;;;;;;;57.87;2.50;;;21.60;1.00;;;;;;5092019;28;20451;-71
2021/10/14 11:43:57;;;;;;;58.03;2.40;;;21.80;1.00;;;;;;5091856;28;20573;-71
2021/10/14 11:46:26;;;;;;;57.53;2.33;;;21.90;1.00;;;;;;5091240;28;20442;-72
2021/10/14 11:48:57;;;;;;;57.73;2.40;;;22.00;1.00;;;;;;5091871;28;20477;-71
2021/10/14 11:51:24;;;;;;;58.20;2.60;;;22.10;1.00;;;;;;5091891;28;20449;-72
2021/10/14 11:54:01;;;;;;;57.27;2.50;;;22.20;1.00;;;;;;5091897;28;20442;-72
2021/10/14 11:56:31;;;;;;;57.93;2.30;;;22.00;1.00;;;;;;5091772;28;20472;-72
2021/10/14 11:59:05;;;;;;;57.80;2.20;;;21.70;1.00;;;;;;5091654;28;20470;-72
2021/10/14 12:01:40;;;;;;;57.40;2.17;;;21.50;1.00;;;;;;5091813;28;20493;-71
2021/10/14 12:04:08;;;;;;;58.03;2.40;;;21.30;1.00;;;;;;5091442;28;20568;-71
2021/10/14 12:06:37;;;;;;;58.07;2.20;;;21.40;1.00;;;;;;5091252;28;20443;-71
2021/10/14 12:09:05;;;;;;;57.67;2.60;;;21.50;1.00;;;;;;5091727;28;20469;-72
2021/10/14 12:11:33;;;;;;;57.37;2.10;;;22.10;1.00;;;;;;5091952;28;20529;-72
2021/10/14 12:14:01;;;;;;;57.47;2.17;;;22.80;1.00;;;;;;5091841;28;20453;-71
2021/10/14 12:16:30;;;;;;;57.47;2.30;;;23.20;1.00;;;;;;5094442;28;20534;-72
2021/10/14 12:19:11;;;;;;;58.30;2.77;;;23.20;1.00;;;;;;5095606;28;21078;-72
2021/10/14 12:21:41;;;;;;;57.37;2.07;;;23.00;1.00;;;;;;5095790;28;20449;-72
2021/10/14 12:24:12;;;;;;;57.37;2.10;;;22.80;1.00;;;;;;5095498;28;20484;-70
2021/10/14 12:26:44;;;;;;;58.20;2.60;;;22.70;1.00;;;;;;5094827;28;20442;-70
2021/10/14 12:29:29;;;;;;;57.70;2.30;;;22.70;1.00;;;;;;5095271;28;20903;-72
2021/10/14 12:32:11;;;;;;;57.80;2.30;;;22.60;1.00;;;;;;5095344;28;20951;-70
2021/10/14 12:34:43;;;;;;;58.37;2.40;;;22.80;1.00;;;;;;5095499;28;20463;-71
2021/10/14 12:37:11;;;;;;;57.60;2.00;;;23.10;1.00;;;;;;5095109;28;20530;-70
2021/10/14 12:39:39;;;;;;;57.83;2.50;;;23.30;1.00;;;;;;5094925;28;20554;-71
2021/10/14 12:42:09;;;;;;;57.57;2.00;;;23.40;1.00;;;;;;5095078;28;21015;-70
2021/10/14 12:44:41;;;;;;;57.70;2.60;;;23.40;1.00;;;;;;5094689;28;20474;-71
2021/10/14 12:47:24;;;;;;;57.70;2.20;;;23.20;1.00;;;;;;5095006;28;20506;-70
2021/10/14 12:50:12;;;;;;;57.47;2.10;;;23.00;1.00;;;;;;5095249;28;20555;-71
2021/10/14 12:52:39;;;;;;;57.23;2.10;;;22.80;1.00;;;;;;5094857;28;20490;-70
2021/10/14 12:55:09;;;;;;;57.67;2.20;;;22.40;1.00;;;;;;5094767;28;20529;-71